Latest Coastal Weather Observations for Melbourne (Olympic Park)

IDV60701

Issued at 8:21 pm EST Monday 16 September 2019 (issued every 10 minutes, with the page automatically refreshed every 10 minutes)

About coastal observations | Map of coastal stations | Coastal observations for VIC | Marine services | Other Formats
Station Details ID: 086338 Name: MELBOURNE (OLYMPIC PARK) Lat: -37.83 Lon: 144.98 Height: 7.53 m
Data from the previous 72 hours. | See also: Recent months at Melbourne (Olympic Park)
Date/Time
EST
Wind Sea
Height
m
Swell Vis
km
Cloud Weather Temp
°C
Press
hPa
Rain since
9am
mm
Dir  Spd
kts
Gust
kts
Height
m
Period
s
Dir
16/08:00pm SSE 6 11 - - - - 10 - - 8.9 1025.7 0.0
16/07:30pm SSE 6 10 - - - - 10 - - 8.9 1025.5 0.0
16/07:00pm SSE 9 19 - - - - 10 - - 9.5 1025.1 0.0
16/06:30pm S 8 12 - - - - 10 - - 10.1 1024.6 0.0
16/06:00pm S 7 15 - - - - 10 - - 10.3 1024.3 0.0
16/05:30pm S 9 17 - - - - 10 - - 10.7 1023.7 0.0
16/05:00pm S 9 16 - - - - 10 - - 11.2 1023.4 0.0
16/04:30pm S 7 14 - - - - 10 - - 11.6 1022.9 0.0
16/04:00pm SSW 11 18 - - - - 10 - - 11.6 1022.8 0.0
16/03:30pm SSW 9 16 - - - - 10 - - 11.6 1022.6 0.0
16/03:00pm S 7 14 - - - - 10 - - 12.3 1022.5 0.0
16/02:30pm S 11 18 - - - - 10 - - 11.5 1022.4 0.0
16/02:00pm S 8 14 - - - - 10 - - 12.5 1021.8 0.0
16/01:30pm S 11 20 - - - - 10 - - 11.9 1021.8 0.0
16/01:00pm S 11 17 - - - - 10 - - 11.8 1021.9 0.0
16/12:30pm S 12 21 - - - - 10 - - 11.7 1021.5 0.0
16/12:00pm SSW 11 21 - - - - 10 - - 12.2 1021.3 0.0
16/11:30am S 11 19 - - - - 10 - - 12.4 1021.3 0.0
16/11:00am S 11 18 - - - - 10 - - 12.5 1021.1 0.0
16/10:30am S 9 21 - - - - 10 - - 12.5 1020.8 0.0
16/10:00am SSW 10 17 - - - - 10 - - 12.2 1020.7 0.0
16/09:30am SSW 6 13 - - - - 10 - - 11.4 1020.5 0.0
16/09:00am SSW 5 7 - - - - 10 - Showers 10.6 1020.5 13.0
16/08:30am SW 5 9 - - - - 10 - - 10.9 1020.3 13.0
16/08:00am SW 4 7 - - - - 10 - - 10.4 1019.9 13.0
16/07:30am SSW 4 7 - - - - 10 - - 10.0 1019.7 13.0
16/07:00am W 3 7 - - - - 10 - - 10.0 1019.4 12.8
16/06:30am WSW 3 6 - - - - 10 - - 9.9 1018.9 12.8
16/06:00am WSW 3 6 - - - - 10 - - 10.2 1018.7 12.8
16/05:30am W 3 8 - - - - 10 - - 10.1 1018.3 12.8
16/05:00am WSW 4 7 - - - - 10 - - 10.2 1018.0 12.8
16/04:30am W 3 5 - - - - 10 - - 10.1 1017.5 12.8
16/04:00am W 2 4 - - - - 10 - - 10.2 1017.5 12.8
16/03:30am WNW 3 7 - - - - 10 - - 10.2 1017.5 12.8
16/03:03am WNW 4 7 - - - - 10 - - 10.3 1017.3 11.8
16/03:00am NW 4 7 - - - - 10 - Showers 10.3 1017.2 11.6
16/02:52am WNW 4 7 - - - - 7 - - 10.3 1016.8 11.4
16/02:43am WNW 5 11 - - - - 10 - - 10.4 1017.3 11.0
16/02:30am WSW 5 9 - - - - 7 - - 10.2 1016.9 10.6
16/02:28am WSW 5 9 - - - - 7 - - 10.3 1016.6 10.6
16/02:00am W 4 8 - - - - 10 - - 10.4 1017.1 10.0
16/01:53am W 5 8 - - - - 10 - - 10.3 1017.2 10.0
16/01:32am WSW 7 14 - - - - 7 - - 10.2 1016.4 9.4
16/01:30am WSW 7 14 - - - - 9 - - 10.3 1016.6 9.2
16/01:00am SSW 5 10 - - - - 8 - - 11.2 1016.6 8.4
16/12:57am SSW 6 10 - - - - 8 - - 11.2 1016.7 8.2
16/12:37am SSW 8 17 - - - - 7 - - 11.2 1016.3 7.6
16/12:30am SSW 9 17 - - - - 10 - - 11.2 1016.3 7.6
16/12:00am WSW 4 6 - - - - 10 - Showers 14.2 1015.1 7.4
 
Date/Time
EST
Wind Sea
Height
m
Swell Vis
km
Cloud Weather Temp
°C
Press
hPa
Rain since
9am
mm
Dir  Spd
kts
Gust
kts
Height
m
Period
s
Dir
15/11:37pm NW 2 4 - - - - 10 - - 14.4 1014.6 6.8
15/11:30pm NW 3 6 - - - - 10 - - 14.5 1015.2 6.6
15/11:25pm NNW 3 6 - - - - 7 - - 14.6 1014.9 6.6
15/11:00pm NNW 3 6 - - - - 10 - - 14.6 1014.9 6.0
15/10:30pm NNW 5 8 - - - - 10 - - 15.2 1015.4 5.8
15/10:00pm WNW 3 7 - - - - 10 - - 14.5 1015.9 5.6
15/09:30pm NNW 4 6 - - - - 10 - - 14.5 1015.1 5.4
15/09:00pm NNW 5 7 - - - - 10 - Rain 14.5 1015.0 5.4
15/08:30pm N 6 9 - - - - 10 - - 14.7 1015.0 5.4
15/08:00pm N 7 10 - - - - 10 - - 15.0 1016.2 5.2
15/07:35pm N 5 7 - - - - 10 - - 15.0 1017.2 3.8
15/07:30pm NNW 4 7 - - - - 10 - - 15.0 1017.3 3.8
15/07:00pm WSW 1 5 - - - - 7 - - 15.3 1017.2 1.6
15/06:30pm NNW 7 10 - - - - 10 - - 16.4 1016.1 0.4
15/06:00pm NNW 9 11 - - - - 10 - Showers 16.4 1015.7 0.2
15/05:30pm NNE 5 8 - - - - 10 - - 17.0 1015.2 0.2
15/05:00pm N 7 11 - - - - 10 - - 17.9 1015.7 0.2
15/04:30pm N 6 10 - - - - 10 - - 17.8 1015.9 0.2
15/04:00pm NNW 7 10 - - - - 10 - - 18.2 1015.9 0.0
15/03:30pm N 8 14 - - - - 10 - - 18.6 1014.8 0.0
15/03:00pm N 11 15 - - - - 10 - - 19.8 1014.4 0.0
15/02:30pm NNW 10 16 - - - - 10 - - 20.7 1014.7 0.0
15/02:00pm N 9 15 - - - - 10 - - 20.0 1015.2 0.0
15/01:30pm NNW 10 16 - - - - 10 - - 18.8 1015.8 0.0
15/01:00pm N 6 8 - - - - 10 - - 18.2 1015.5 0.0
15/12:30pm N 9 14 - - - - 10 - - 17.0 1015.8 0.0
15/12:00pm N 11 17 - - - - 10 - Showers 16.1 1015.9 0.0
15/11:30am N 11 18 - - - - 10 - - 15.8 1016.6 0.0
15/11:00am N 13 23 - - - - 10 - - 15.5 1016.9 0.0
15/10:30am N 12 22 - - - - 10 - - 15.4 1017.3 0.0
15/10:00am N 15 22 - - - - 10 - - 15.1 1017.7 0.0
15/09:30am N 16 26 - - - - 10 - - 14.8 1018.2 0.0
15/09:13am N 15 26 - - - - 10 - - 14.9 1018.1 0.0
15/09:00am N 12 20 - - - - 10 - Rain 15.0 1018.5 1.6
15/08:30am N 12 20 - - - - 10 - - 14.3 1018.9 1.6
15/08:00am N 12 23 - - - - 10 - - 13.8 1018.6 1.6
15/07:30am N 10 15 - - - - 10 - - 14.6 1019.0 1.4
15/07:00am N 12 19 - - - - 10 - - 14.3 1018.4 1.4
15/06:30am N 11 16 - - - - 10 - - 14.0 1017.8 1.4
15/06:00am N 9 15 - - - - 10 - Showers 13.7 1017.9 1.4
15/05:30am N 11 17 - - - - 10 - - 13.3 1017.8 1.4
15/05:00am N 11 17 - - - - 10 - - 13.7 1018.5 1.4
15/04:30am N 9 15 - - - - 10 - - 14.5 1018.8 0.6
15/04:00am N 8 11 - - - - 10 - - 14.8 1018.8 0.4
15/03:30am N 7 10 - - - - 10 - - 15.0 1018.7 0.2
15/03:00am NNE 6 9 - - - - 10 - - 15.1 1018.7 0.2
15/02:30am NNE 5 7 - - - - 10 - - 15.4 1019.2 0.2
15/02:00am NNE 6 9 - - - - 10 - - 15.7 1019.6 0.2
15/01:30am NNE 6 9 - - - - 10 - - 15.6 1020.0 0.2
15/01:00am NNE 6 9 - - - - 10 - - 15.4 1020.2 0.2
15/12:30am NNE 5 7 - - - - 10 - - 15.2 1020.6 0.2
15/12:00am NNE 5 8 - - - - 10 - Showers 15.5 1020.9 0.2
 
Date/Time
EST
Wind Sea
Height
m
Swell Vis
km
Cloud Weather Temp
°C
Press
hPa
Rain since
9am
mm
Dir  Spd
kts
Gust
kts
Height
m
Period
s
Dir
14/11:30pm NNE 4 6 - - - - 10 - - 16.4 1021.3 0.2
14/11:00pm NNE 5 7 - - - - 10 - - 16.7 1021.2 0.2
14/10:30pm NNE 5 8 - - - - 10 - - 16.8 1021.1 0.2
14/10:00pm N 7 10 - - - - 10 - - 16.9 1021.2 0.2
14/09:30pm N 8 11 - - - - 10 - - 17.1 1021.0 0.2
14/09:00pm N 6 9 - - - - 10 - - 16.8 1021.7 0.2
14/08:30pm NNW 7 11 - - - - 10 - - 17.0 1021.8 0.2
14/08:00pm N 8 13 - - - - 10 - - 17.5 1021.5 0.2
14/07:30pm N 6 8 - - - - 10 - - 17.2 1021.4 0.2
14/07:00pm N 7 10 - - - - 10 - - 17.8 1021.4 0.2
14/06:30pm N 7 11 - - - - 10 - - 18.7 1021.4 0.2
14/06:00pm N 7 11 - - - - 10 - - 19.6 1021.4 0.2
14/05:30pm N 6 9 - - - - 10 - - 19.9 1021.7 0.2
14/05:00pm WSW 1 3 - - - - 10 - - 19.1 1021.8 0.2
14/04:30pm S 3 6 - - - - 10 - - 18.5 1022.1 0.2
14/04:00pm SSW 3 5 - - - - 10 - - 18.7 1022.3 0.2
14/03:30pm SSW 5 6 - - - - 10 - - 18.6 1022.7 0.2
14/03:00pm SSW 4 6 - - - - 10 - - 18.6 1022.9 0.2
14/02:30pm SW 4 7 - - - - 10 - - 17.8 1023.4 0.2
14/02:00pm SSW 5 7 - - - - 10 - - 17.0 1023.5 0.2
14/01:30pm SSW 4 7 - - - - 10 - - 16.6 1023.9 0.2
14/01:00pm SSW 5 6 - - - - 10 - - 16.1 1024.3 0.2
14/12:30pm SSW 6 8 - - - - 10 - - 14.9 1025.0 0.2
14/12:00pm SSW 7 11 - - - - 10 - Recent precip. 14.2 1025.4 0.2
14/11:30am S 4 7 - - - - 10 - - 14.8 1025.7 0.2
14/11:00am SSE 4 7 - - - - 10 - - 14.5 1025.9 0.0
14/10:30am S 4 6 - - - - 10 - - 14.1 1026.2 0.0
14/10:00am S 6 9 - - - - 10 - - 13.5 1026.7 0.0
14/09:30am SSW 2 6 - - - - 10 - - 13.2 1027.0 0.0
14/09:00am SW 4 7 - - - - 10 - - 12.5 1027.1 0.0
14/08:30am SW 4 7 - - - - 10 - - 12.0 1026.8 0.0
14/08:00am SW 2 4 - - - - 10 - - 11.2 1026.6 0.0
14/07:30am S 2 5 - - - - 10 - - 10.2 1026.3 0.0
14/07:00am WNW 1 4 - - - - 10 - - 9.6 1026.1 0.0
14/06:30am W 3 5 - - - - 10 - - 9.6 1026.2 0.0
14/06:00am W 2 5 - - - - 10 - - 9.4 1026.0 0.0
14/05:30am WSW 2 5 - - - - 10 - - 9.8 1025.8 0.0
14/05:00am W 4 7 - - - - 10 - - 10.1 1025.6 0.0
14/04:30am WSW 4 6 - - - - 10 - - 10.2 1025.4 0.0
14/04:00am W 4 8 - - - - 10 - - 10.4 1025.5 0.0
14/03:30am W 3 6 - - - - 10 - - 10.5 1025.5 0.0
14/03:00am W 5 8 - - - - 10 - - 10.9 1025.4 0.0
14/02:30am W 4 8 - - - - 10 - - 10.9 1025.6 0.0
14/02:00am W 5 8 - - - - 10 - - 11.1 1025.6 0.0
14/01:30am W 4 9 - - - - 10 - - 11.2 1025.7 0.0
14/01:00am W 4 9 - - - - 10 - - 11.5 1025.7 0.0
14/12:30am W 4 7 - - - - 10 - - 11.8 1025.7 0.0
14/12:00am W 6 11 - - - - 10 - - 12.1 1025.7 0.0
 
Date/Time
EST
Wind Sea
Height
m
Swell Vis
km
Cloud Weather Temp
°C
Press
hPa
Rain since
9am
mm
Dir  Spd
kts
Gust
kts
Height
m
Period
s
Dir
13/11:30pm W 7 14 - - - - 10 - - 12.5 1025.7 0.0
13/11:00pm W 5 11 - - - - 10 - - 12.7 1025.7 0.0
13/10:30pm WSW 6 12 - - - - 10 - - 13.0 1025.5 0.0
13/10:00pm WSW 5 10 - - - - 10 - - 13.3 1025.3 0.0
13/09:30pm W 4 9 - - - - 10 - - 13.8 1025.1 0.0
13/09:00pm SW 4 8 - - - - 10 - - 14.3 1024.8 0.0
13/08:30pm SW 6 11 - - - - 10 - - 14.6 1024.5 0.0

Other formats

Comma delimited format used in spreadsheet applications
http://www.bom.gov.au/fwo/IDV60701/IDV60701.95936.axf

JavaScript Object Notation format (JSON) in row-major order
http://www.bom.gov.au/fwo/IDV60701/IDV60701.95936.json

Data quality

Most of these data are generated automatically and are frequently updated. Quality checks on data are not normally performed. It is possible for incorrect values to appear. Refer to information at About Latest Weather Observations and please check the disclaimer before using these data.